sensor_id;sensor_type;location;lat;lon;timestamp;pressure;altitude;pressure_sealevel;temperature;humidity
22241;BME280;11289;52.524;13.694;2023-04-19T00:01:06;102122.03;;;6.19;67.72
22241;BME280;11289;52.524;13.694;2023-04-19T00:03:32;102116.19;;;6.16;66.26
22241;BME280;11289;52.524;13.694;2023-04-19T00:05:58;102123.91;;;6.14;65.97
22241;BME280;11289;52.524;13.694;2023-04-19T00:08:25;102121.44;;;6.12;65.57
22241;BME280;11289;52.524;13.694;2023-04-19T00:10:51;102124.47;;;6.10;65.77
22241;BME280;11289;52.524;13.694;2023-04-19T00:13:17;102119.72;;;6.06;65.23
22241;BME280;11289;52.524;13.694;2023-04-19T00:15:43;102121.13;;;6.08;65.72
22241;BME280;11289;52.524;13.694;2023-04-19T00:18:09;102121.97;;;6.09;65.18
22241;BME280;11289;52.524;13.694;2023-04-19T00:20:35;102115.84;;;6.07;65.46
22241;BME280;11289;52.524;13.694;2023-04-19T00:23:01;102112.28;;;6.06;65.11
22241;BME280;11289;52.524;13.694;2023-04-19T00:25:28;102101.47;;;6.00;65.12
22241;BME280;11289;52.524;13.694;2023-04-19T00:27:56;102097.34;;;5.97;63.97
22241;BME280;11289;52.524;13.694;2023-04-19T00:30:22;102104.50;;;5.98;63.95
22241;BME280;11289;52.524;13.694;2023-04-19T00:32:48;102101.69;;;5.93;63.85
22241;BME280;11289;52.524;13.694;2023-04-19T00:35:14;102107.47;;;5.97;63.93
22241;BME280;11289;52.524;13.694;2023-04-19T00:37:40;102110.00;;;5.98;63.95
22241;BME280;11289;52.524;13.694;2023-04-19T00:40:07;102114.38;;;5.94;62.69
22241;BME280;11289;52.524;13.694;2023-04-19T00:42:33;102112.91;;;5.86;62.56
22241;BME280;11289;52.524;13.694;2023-04-19T00:45:00;102112.38;;;5.89;62.75
22241;BME280;11289;52.524;13.694;2023-04-19T00:47:26;102101.53;;;5.78;62.27
22241;BME280;11289;52.524;13.694;2023-04-19T00:49:52;102114.22;;;5.79;63.00
22241;BME280;11289;52.524;13.694;2023-04-19T00:52:19;102105.41;;;5.77;62.17
22241;BME280;11289;52.524;13.694;2023-04-19T00:54:46;102104.19;;;5.67;62.15
22241;BME280;11289;52.524;13.694;2023-04-19T00:57:14;102107.47;;;5.64;62.19
22241;BME280;11289;52.524;13.694;2023-04-19T00:59:41;102103.59;;;5.60;62.29
22241;BME280;11289;52.524;13.694;2023-04-19T01:02:08;102105.44;;;5.54;63.21
22241;BME280;11289;52.524;13.694;2023-04-19T01:04:34;102099.06;;;5.49;63.24
22241;BME280;11289;52.524;13.694;2023-04-19T01:07:01;102105.69;;;5.48;64.31
22241;BME280;11289;52.524;13.694;2023-04-19T01:09:27;102103.94;;;5.41;63.56
22241;BME280;11289;52.524;13.694;2023-04-19T01:11:58;102095.84;;;5.30;63.82
22241;BME280;11289;52.524;13.694;2023-04-19T01:14:24;102104.44;;;5.33;64.82
22241;BME280;11289;52.524;13.694;2023-04-19T01:16:50;102093.59;;;5.27;64.72
22241;BME280;11289;52.524;13.694;2023-04-19T01:19:17;102101.56;;;5.23;64.53
22241;BME280;11289;52.524;13.694;2023-04-19T01:21:43;102094.53;;;5.10;63.70
22241;BME280;11289;52.524;13.694;2023-04-19T01:24:09;102100.31;;;5.09;64.18
22241;BME280;11289;52.524;13.694;2023-04-19T01:26:35;102096.38;;;5.04;63.81
22241;BME280;11289;52.524;13.694;2023-04-19T01:29:01;102099.41;;;5.03;64.66
22241;BME280;11289;52.524;13.694;2023-04-19T01:31:27;102095.22;;;5.00;64.11
22241;BME280;11289;52.524;13.694;2023-04-19T01:33:53;102086.94;;;4.95;64.33
22241;BME280;11289;52.524;13.694;2023-04-19T01:36:19;102094.84;;;4.92;63.84
22241;BME280;11289;52.524;13.694;2023-04-19T01:38:45;102083.53;;;4.88;64.35
22241;BME280;11289;52.524;13.694;2023-04-19T01:41:14;102091.53;;;4.90;65.25
22241;BME280;11289;52.524;13.694;2023-04-19T01:43:41;102090.69;;;4.89;64.74
22241;BME280;11289;52.524;13.694;2023-04-19T01:46:07;102090.66;;;4.84;65.38
22241;BME280;11289;52.524;13.694;2023-04-19T01:48:33;102088.47;;;4.86;65.05
22241;BME280;11289;52.524;13.694;2023-04-19T01:50:59;102085.06;;;4.79;64.87
22241;BME280;11289;52.524;13.694;2023-04-19T01:53:25;102072.34;;;4.73;65.29
22241;BME280;11289;52.524;13.694;2023-04-19T01:55:51;102079.81;;;4.77;65.74
22241;BME280;11289;52.524;13.694;2023-04-19T01:58:17;102075.66;;;4.75;65.78
22241;BME280;11289;52.524;13.694;2023-04-19T02:00:43;102070.91;;;4.70;65.31
22241;BME280;11289;52.524;13.694;2023-04-19T02:03:09;102080.50;;;4.67;65.96
22241;BME280;11289;52.524;13.694;2023-04-19T02:05:38;102065.84;;;4.62;65.20
22241;BME280;11289;52.524;13.694;2023-04-19T02:08:04;102066.06;;;4.55;66.04
22241;BME280;11289;52.524;13.694;2023-04-19T02:10:30;102071.56;;;4.55;65.98
22241;BME280;11289;52.524;13.694;2023-04-19T02:12:56;102062.91;;;4.46;66.29
22241;BME280;11289;52.524;13.694;2023-04-19T02:15:22;102055.44;;;4.42;65.91
22241;BME280;11289;52.524;13.694;2023-04-19T02:17:48;102053.19;;;4.39;66.04
22241;BME280;11289;52.524;13.694;2023-04-19T02:20:14;102048.94;;;4.31;66.53
22241;BME280;11289;52.524;13.694;2023-04-19T02:22:40;102045.94;;;4.32;67.15
22241;BME280;11289;52.524;13.694;2023-04-19T02:25:06;102052.28;;;4.33;66.94
22241;BME280;11289;52.524;13.694;2023-04-19T02:27:32;102050.03;;;4.30;66.53
22241;BME280;11289;52.524;13.694;2023-04-19T02:29:58;102055.19;;;4.26;67.14
22241;BME280;11289;52.524;13.694;2023-04-19T02:32:24;102050.72;;;4.20;67.14
22241;BME280;11289;52.524;13.694;2023-04-19T02:34:50;102037.34;;;4.07;67.58
22241;BME280;11289;52.524;13.694;2023-04-19T02:37:16;102029.97;;;4.12;67.97
22241;BME280;11289;52.524;13.694;2023-04-19T02:39:43;102044.81;;;4.11;67.31
22241;BME280;11289;52.524;13.694;2023-04-19T02:42:10;102042.34;;;4.10;68.05
22241;BME280;11289;52.524;13.694;2023-04-19T02:44:36;102043.66;;;4.07;67.86
22241;BME280;11289;52.524;13.694;2023-04-19T02:47:02;102034.81;;;4.05;68.25
22241;BME280;11289;52.524;13.694;2023-04-19T02:49:29;102034.25;;;4.03;68.46
22241;BME280;11289;52.524;13.694;2023-04-19T02:51:57;102020.34;;;3.93;68.29
22241;BME280;11289;52.524;13.694;2023-04-19T02:54:23;102005.13;;;3.85;68.51
22241;BME280;11289;52.524;13.694;2023-04-19T02:56:49;102021.78;;;3.95;68.55
22241;BME280;11289;52.524;13.694;2023-04-19T02:59:15;102023.34;;;3.91;68.44
22241;BME280;11289;52.524;13.694;2023-04-19T03:01:41;102035.44;;;3.90;68.79
22241;BME280;11289;52.524;13.694;2023-04-19T03:04:07;102034.25;;;3.86;68.65
22241;BME280;11289;52.524;13.694;2023-04-19T03:06:33;102031.19;;;3.82;69.12
22241;BME280;11289;52.524;13.694;2023-04-19T03:08:59;102032.88;;;3.83;69.24
22241;BME280;11289;52.524;13.694;2023-04-19T03:11:25;102019.38;;;3.82;69.17
22241;BME280;11289;52.524;13.694;2023-04-19T03:13:51;102017.19;;;3.84;69.49
22241;BME280;11289;52.524;13.694;2023-04-19T03:16:17;102024.63;;;3.83;69.43
22241;BME280;11289;52.524;13.694;2023-04-19T03:18:43;102018.88;;;3.85;69.76
22241;BME280;11289;52.524;13.694;2023-04-19T03:21:09;102010.38;;;3.87;69.32
22241;BME280;11289;52.524;13.694;2023-04-19T03:23:35;102003.72;;;3.82;69.78
22241;BME280;11289;52.524;13.694;2023-04-19T03:26:02;102010.63;;;3.85;69.58
22241;BME280;11289;52.524;13.694;2023-04-19T03:28:31;102002.38;;;3.85;70.04
22241;BME280;11289;52.524;13.694;2023-04-19T03:30:57;101998.47;;;3.81;69.86
22241;BME280;11289;52.524;13.694;2023-04-19T03:33:23;101990.38;;;3.74;70.41
22241;BME280;11289;52.524;13.694;2023-04-19T03:35:49;101997.00;;;3.73;70.47
22241;BME280;11289;52.524;13.694;2023-04-19T03:38:15;101998.81;;;3.68;70.19
22241;BME280;11289;52.524;13.694;2023-04-19T03:40:41;102003.16;;;3.63;70.51
22241;BME280;11289;52.524;13.694;2023-04-19T03:43:07;101992.06;;;3.58;70.97
22241;BME280;11289;52.524;13.694;2023-04-19T03:45:33;101994.50;;;3.55;71.26
22241;BME280;11289;52.524;13.694;2023-04-19T03:47:59;101985.59;;;3.47;71.44
22241;BME280;11289;52.524;13.694;2023-04-19T03:50:25;101983.09;;;3.46;71.58
22241;BME280;11289;52.524;13.694;2023-04-19T03:52:51;101961.94;;;3.29;71.44
22241;BME280;11289;52.524;13.694;2023-04-19T03:55:17;101981.25;;;3.35;71.95
22241;BME280;11289;52.524;13.694;2023-04-19T03:57:43;101985.44;;;3.37;72.63
22241;BME280;11289;52.524;13.694;2023-04-19T04:00:09;101968.84;;;3.32;72.50
22241;BME280;11289;52.524;13.694;2023-04-19T04:02:37;101982.06;;;3.35;72.79
22241;BME280;11289;52.524;13.694;2023-04-19T04:05:05;101982.31;;;3.34;73.12
22241;BME280;11289;52.524;13.694;2023-04-19T04:07:31;101980.34;;;3.29;73.52
22241;BME280;11289;52.524;13.694;2023-04-19T04:09:57;101976.66;;;3.23;74.07
22241;BME280;11289;52.524;13.694;2023-04-19T04:12:23;101972.25;;;3.22;74.09
22241;BME280;11289;52.524;13.694;2023-04-19T04:14:49;101958.03;;;3.08;74.39
22241;BME280;11289;52.524;13.694;2023-04-19T04:17:15;101967.00;;;3.21;74.58
22241;BME280;11289;52.524;13.694;2023-04-19T04:19:41;101964.88;;;3.23;74.63
22241;BME280;11289;52.524;13.694;2023-04-19T04:22:07;101967.09;;;3.26;75.26
22241;BME280;11289;52.524;13.694;2023-04-19T04:24:37;101968.44;;;3.23;75.67
22241;BME280;11289;52.524;13.694;2023-04-19T04:27:09;101970.94;;;3.25;75.52
22241;BME280;11289;52.524;13.694;2023-04-19T04:29:36;101954.97;;;3.22;76.08
22241;BME280;11289;52.524;13.694;2023-04-19T04:32:05;101965.19;;;3.26;76.70
22241;BME280;11289;52.524;13.694;2023-04-19T04:34:33;101946.47;;;3.23;76.68
22241;BME280;11289;52.524;13.694;2023-04-19T04:37:00;101960.19;;;3.23;77.88
22241;BME280;11289;52.524;13.694;2023-04-19T04:39:27;101967.44;;;3.29;77.83
22241;BME280;11289;52.524;13.694;2023-04-19T04:41:54;101957.78;;;3.27;78.00
22241;BME280;11289;52.524;13.694;2023-04-19T04:44:22;101961.47;;;3.33;77.71
22241;BME280;11289;52.524;13.694;2023-04-19T04:46:48;101939.81;;;3.36;77.75
22241;BME280;11289;52.524;13.694;2023-04-19T04:49:14;101933.50;;;3.36;77.94
22241;BME280;11289;52.524;13.694;2023-04-19T04:51:40;101951.47;;;3.43;77.99
22241;BME280;11289;52.524;13.694;2023-04-19T04:54:06;101925.84;;;3.38;78.95
22241;BME280;11289;52.524;13.694;2023-04-19T04:56:32;101938.81;;;3.42;78.89
22241;BME280;11289;52.524;13.694;2023-04-19T04:58:58;101927.00;;;3.42;78.79
22241;BME280;11289;52.524;13.694;2023-04-19T05:01:24;101934.47;;;3.46;78.83
22241;BME280;11289;52.524;13.694;2023-04-19T05:03:51;101939.47;;;3.49;78.86
22241;BME280;11289;52.524;13.694;2023-04-19T05:06:17;101922.69;;;3.46;79.50
22241;BME280;11289;52.524;13.694;2023-04-19T05:08:43;101926.81;;;3.48;79.46
22241;BME280;11289;52.524;13.694;2023-04-19T05:11:10;101926.91;;;3.54;79.47
22241;BME280;11289;52.524;13.694;2023-04-19T05:13:36;101934.63;;;3.57;79.54
22241;BME280;11289;52.524;13.694;2023-04-19T05:16:02;101922.31;;;3.59;79.76
22241;BME280;11289;52.524;13.694;2023-04-19T05:18:28;101915.09;;;3.53;80.04
22241;BME280;11289;52.524;13.694;2023-04-19T05:20:54;101926.50;;;3.62;80.05
22241;BME280;11289;52.524;13.694;2023-04-19T05:23:21;101925.13;;;3.64;79.77
22241;BME280;11289;52.524;13.694;2023-04-19T05:25:47;101920.22;;;3.66;80.17
22241;BME280;11289;52.524;13.694;2023-04-19T05:28:13;101923.28;;;3.70;80.09
22241;BME280;11289;52.524;13.694;2023-04-19T05:30:39;101920.63;;;3.75;80.33
22241;BME280;11289;52.524;13.694;2023-04-19T05:33:05;101914.88;;;3.77;80.29
22241;BME280;11289;52.524;13.694;2023-04-19T05:35:31;101919.63;;;3.81;80.27
22241;BME280;11289;52.524;13.694;2023-04-19T05:37:57;101918.03;;;3.86;80.06
22241;BME280;11289;52.524;13.694;2023-04-19T05:40:23;101910.94;;;3.90;79.94
22241;BME280;11289;52.524;13.694;2023-04-19T05:42:49;101915.41;;;3.96;80.25
22241;BME280;11289;52.524;13.694;2023-04-19T05:45:15;101909.66;;;3.97;79.90
22241;BME280;11289;52.524;13.694;2023-04-19T05:47:43;101910.56;;;4.03;79.86
22241;BME280;11289;52.524;13.694;2023-04-19T05:50:09;101920.28;;;4.11;79.70
22241;BME280;11289;52.524;13.694;2023-04-19T05:52:35;101908.19;;;4.12;79.82
22241;BME280;11289;52.524;13.694;2023-04-19T05:55:01;101904.13;;;4.14;79.52
22241;BME280;11289;52.524;13.694;2023-04-19T05:57:27;101907.25;;;4.23;79.64
22241;BME280;11289;52.524;13.694;2023-04-19T05:59:53;101902.38;;;4.30;79.12
22241;BME280;11289;52.524;13.694;2023-04-19T06:02:19;101902.78;;;4.44;79.69
22241;BME280;11289;52.524;13.694;2023-04-19T06:04:45;101908.81;;;4.63;79.34
22241;BME280;11289;52.524;13.694;2023-04-19T06:07:11;101901.25;;;4.81;78.33
22241;BME280;11289;52.524;13.694;2023-04-19T06:09:37;101906.44;;;5.10;77.70
22241;BME280;11289;52.524;13.694;2023-04-19T06:12:03;101895.63;;;5.30;77.21
22241;BME280;11289;52.524;13.694;2023-04-19T06:14:29;101897.44;;;5.57;75.65
22241;BME280;11289;52.524;13.694;2023-04-19T06:16:55;101889.06;;;5.84;74.48
22241;BME280;11289;52.524;13.694;2023-04-19T06:19:21;101888.66;;;6.08;72.89
22241;BME280;11289;52.524;13.694;2023-04-19T06:21:48;101887.94;;;6.38;71.69
22241;BME280;11289;52.524;13.694;2023-04-19T06:24:14;101893.53;;;6.64;70.48
22241;BME280;11289;52.524;13.694;2023-04-19T06:26:40;101893.28;;;6.86;70.08
22241;BME280;11289;52.524;13.694;2023-04-19T06:29:06;101887.50;;;7.13;69.75
22241;BME280;11289;52.524;13.694;2023-04-19T06:31:32;101900.19;;;7.35;68.04
22241;BME280;11289;52.524;13.694;2023-04-19T06:33:58;101884.41;;;7.46;67.08
22241;BME280;11289;52.524;13.694;2023-04-19T06:36:24;101885.25;;;7.46;65.03
22241;BME280;11289;52.524;13.694;2023-04-19T06:38:50;101884.09;;;7.63;65.85
22241;BME280;11289;52.524;13.694;2023-04-19T06:41:16;101893.97;;;7.95;65.86
22241;BME280;11289;52.524;13.694;2023-04-19T06:43:42;101877.31;;;8.10;64.47
22241;BME280;11289;52.524;13.694;2023-04-19T06:46:09;101880.53;;;8.33;63.33
22241;BME280;11289;52.524;13.694;2023-04-19T06:48:37;101876.63;;;8.44;62.77
22241;BME280;11289;52.524;13.694;2023-04-19T06:51:03;101875.44;;;8.56;63.07
22241;BME280;11289;52.524;13.694;2023-04-19T06:53:29;101870.94;;;8.65;61.88
22241;BME280;11289;52.524;13.694;2023-04-19T06:55:58;101868.66;;;8.77;61.36
22241;BME280;11289;52.524;13.694;2023-04-19T06:58:27;101858.00;;;8.95;59.85
22241;BME280;11289;52.524;13.694;2023-04-19T07:00:53;101852.13;;;9.01;59.83
22241;BME280;11289;52.524;13.694;2023-04-19T07:03:20;101859.88;;;9.34;59.20
22241;BME280;11289;52.524;13.694;2023-04-19T07:05:46;101858.94;;;9.44;58.47
22241;BME280;11289;52.524;13.694;2023-04-19T07:08:12;101849.63;;;9.58;57.70
22241;BME280;11289;52.524;13.694;2023-04-19T07:10:38;101842.38;;;9.87;57.30
22241;BME280;11289;52.524;13.694;2023-04-19T07:13:04;101850.44;;;10.07;56.35
22241;BME280;11289;52.524;13.694;2023-04-19T07:15:30;101845.59;;;10.18;55.33
22241;BME280;11289;52.524;13.694;2023-04-19T07:17:56;101850.88;;;10.39;54.25
22241;BME280;11289;52.524;13.694;2023-04-19T07:20:22;101846.84;;;10.50;54.35
22241;BME280;11289;52.524;13.694;2023-04-19T07:22:48;101835.59;;;10.74;55.05
22241;BME280;11289;52.524;13.694;2023-04-19T07:25:14;101848.44;;;10.89;54.18
22241;BME280;11289;52.524;13.694;2023-04-19T07:27:40;101843.59;;;11.14;53.23
22241;BME280;11289;52.524;13.694;2023-04-19T07:30:07;101828.53;;;11.01;51.22
22241;BME280;11289;52.524;13.694;2023-04-19T07:32:33;101832.34;;;10.86;51.93
22241;BME280;11289;52.524;13.694;2023-04-19T07:34:59;101829.00;;;10.89;52.55
22241;BME280;11289;52.524;13.694;2023-04-19T07:37:25;101837.78;;;10.96;50.60
22241;BME280;11289;52.524;13.694;2023-04-19T07:39:51;101834.88;;;10.88;50.82
22241;BME280;11289;52.524;13.694;2023-04-19T07:42:17;101831.63;;;11.13;51.02
22241;BME280;11289;52.524;13.694;2023-04-19T07:44:43;101824.88;;;11.20;51.43
22241;BME280;11289;52.524;13.694;2023-04-19T07:47:09;101820.53;;;11.41;50.17
22241;BME280;11289;52.524;13.694;2023-04-19T07:49:35;101815.75;;;11.61;49.98
22241;BME280;11289;52.524;13.694;2023-04-19T07:52:05;101801.72;;;11.66;49.32
22241;BME280;11289;52.524;13.694;2023-04-19T07:54:32;101793.56;;;11.83;48.62
22241;BME280;11289;52.524;13.694;2023-04-19T07:56:57;101800.81;;;11.98;48.68
22241;BME280;11289;52.524;13.694;2023-04-19T07:59:23;101791.28;;;12.13;48.87
22241;BME280;11289;52.524;13.694;2023-04-19T08:01:50;101797.81;;;12.31;48.73
22241;BME280;11289;52.524;13.694;2023-04-19T08:04:16;101800.97;;;12.52;46.66
22241;BME280;11289;52.524;13.694;2023-04-19T08:06:44;101801.41;;;12.68;46.16
22241;BME280;11289;52.524;13.694;2023-04-19T08:09:10;101796.84;;;12.73;45.36
22241;BME280;11289;52.524;13.694;2023-04-19T08:11:36;101796.66;;;12.69;45.65
22241;BME280;11289;52.524;13.694;2023-04-19T08:14:02;101793.94;;;12.78;44.97
22241;BME280;11289;52.524;13.694;2023-04-19T08:16:28;101794.69;;;12.92;44.92
22241;BME280;11289;52.524;13.694;2023-04-19T08:18:54;101786.78;;;12.85;45.12
22241;BME280;11289;52.524;13.694;2023-04-19T08:21:20;101800.50;;;12.82;44.08
22241;BME280;11289;52.524;13.694;2023-04-19T08:23:46;101787.22;;;12.56;44.03
22241;BME280;11289;52.524;13.694;2023-04-19T08:26:12;101785.19;;;12.70;45.44
22241;BME280;11289;52.524;13.694;2023-04-19T08:28:38;101777.91;;;12.83;43.94
22241;BME280;11289;52.524;13.694;2023-04-19T08:31:05;101801.72;;;12.89;43.92
22241;BME280;11289;52.524;13.694;2023-04-19T08:33:32;101791.25;;;12.95;45.57
22241;BME280;11289;52.524;13.694;2023-04-19T08:35:58;101787.97;;;12.70;44.17
22241;BME280;11289;52.524;13.694;2023-04-19T08:38:24;101784.44;;;12.56;44.86
22241;BME280;11289;52.524;13.694;2023-04-19T08:40:51;101782.91;;;12.27;45.17
22241;BME280;11289;52.524;13.694;2023-04-19T08:43:18;101786.25;;;12.01;46.06
22241;BME280;11289;52.524;13.694;2023-04-19T08:45:47;101751.41;;;12.04;47.51
22241;BME280;11289;52.524;13.694;2023-04-19T08:48:15;101774.94;;;12.34;45.41
22241;BME280;11289;52.524;13.694;2023-04-19T08:50:42;101765.38;;;12.49;44.96
22241;BME280;11289;52.524;13.694;2023-04-19T08:53:09;101765.03;;;12.28;44.85
22241;BME280;11289;52.524;13.694;2023-04-19T08:55:37;101764.41;;;11.81;45.40
22241;BME280;11289;52.524;13.694;2023-04-19T08:58:03;101763.63;;;11.39;46.18
22241;BME280;11289;52.524;13.694;2023-04-19T09:00:32;101755.34;;;11.61;46.23
22241;BME280;11289;52.524;13.694;2023-04-19T09:02:58;101756.03;;;12.09;45.52
22241;BME280;11289;52.524;13.694;2023-04-19T09:05:24;101756.06;;;12.54;46.07
22241;BME280;11289;52.524;13.694;2023-04-19T09:07:50;101756.19;;;12.26;44.92
22241;BME280;11289;52.524;13.694;2023-04-19T09:10:18;101745.56;;;12.51;46.35
22241;BME280;11289;52.524;13.694;2023-04-19T09:13:02;101747.66;;;12.68;44.30
22241;BME280;11289;52.524;13.694;2023-04-19T09:15:35;101757.56;;;12.83;45.06
22241;BME280;11289;52.524;13.694;2023-04-19T09:18:07;101749.44;;;13.27;43.98
22241;BME280;11289;52.524;13.694;2023-04-19T09:20:39;101743.59;;;13.05;42.44
22241;BME280;11289;52.524;13.694;2023-04-19T09:23:09;101746.56;;;12.78;43.53
22241;BME280;11289;52.524;13.694;2023-04-19T09:25:38;101733.16;;;12.34;44.49
22241;BME280;11289;52.524;13.694;2023-04-19T09:28:11;101734.66;;;12.18;44.26
22241;BME280;11289;52.524;13.694;2023-04-19T09:30:38;101729.28;;;11.85;45.09
22241;BME280;11289;52.524;13.694;2023-04-19T09:33:05;101719.91;;;12.40;46.11
22241;BME280;11289;52.524;13.694;2023-04-19T09:35:45;101722.03;;;12.34;45.45
22241;BME280;11289;52.524;13.694;2023-04-19T09:38:13;101710.69;;;12.85;43.94
22241;BME280;11289;52.524;13.694;2023-04-19T09:40:39;101711.06;;;13.32;44.93
22241;BME280;11289;52.524;13.694;2023-04-19T09:43:06;101717.59;;;13.85;43.19
22241;BME280;11289;52.524;13.694;2023-04-19T09:45:39;101715.81;;;14.07;43.12
22241;BME280;11289;52.524;13.694;2023-04-19T09:48:07;101712.22;;;14.33;42.42
22241;BME280;11289;52.524;13.694;2023-04-19T09:50:34;101698.88;;;14.47;43.26
22241;BME280;11289;52.524;13.694;2023-04-19T09:53:01;101714.13;;;14.85;42.34
22241;BME280;11289;52.524;13.694;2023-04-19T09:55:27;101709.25;;;15.11;41.89
22241;BME280;11289;52.524;13.694;2023-04-19T09:57:54;101708.00;;;15.30;41.06
22241;BME280;11289;52.524;13.694;2023-04-19T10:00:21;101722.81;;;15.30;41.01
22241;BME280;11289;52.524;13.694;2023-04-19T10:02:50;101713.03;;;15.45;40.44
22241;BME280;11289;52.524;13.694;2023-04-19T10:05:20;101713.13;;;15.58;40.02
22241;BME280;11289;52.524;13.694;2023-04-19T10:07:48;101707.16;;;15.38;40.18
22241;BME280;11289;52.524;13.694;2023-04-19T10:10:15;101693.56;;;14.80;40.01
22241;BME280;11289;52.524;13.694;2023-04-19T10:12:47;101701.88;;;15.07;39.60
22241;BME280;11289;52.524;13.694;2023-04-19T10:15:14;101695.41;;;14.68;39.95
22241;BME280;11289;52.524;13.694;2023-04-19T10:17:40;101704.44;;;14.73;39.12
22241;BME280;11289;52.524;13.694;2023-04-19T10:20:10;101695.06;;;14.78;40.63
22241;BME280;11289;52.524;13.694;2023-04-19T10:22:38;101686.06;;;15.11;40.41
22241;BME280;11289;52.524;13.694;2023-04-19T10:25:12;101694.75;;;15.18;39.38
22241;BME280;11289;52.524;13.694;2023-04-19T10:27:39;101685.84;;;14.77;40.36
22241;BME280;11289;52.524;13.694;2023-04-19T10:30:06;101669.84;;;14.87;40.50
22241;BME280;11289;52.524;13.694;2023-04-19T10:32:43;101686.97;;;15.24;41.88
22241;BME280;11289;52.524;13.694;2023-04-19T10:43:17;101672.09;;;15.62;39.48
22241;BME280;11289;52.524;13.694;2023-04-19T10:45:44;101675.06;;;15.65;38.82
22241;BME280;11289;52.524;13.694;2023-04-19T10:50:59;101658.38;;;15.69;38.82
22241;BME280;11289;52.524;13.694;2023-04-19T10:56:22;101657.41;;;15.44;40.63
22241;BME280;11289;52.524;13.694;2023-04-19T11:01:36;101664.88;;;15.01;40.91
22241;BME280;11289;52.524;13.694;2023-04-19T11:09:39;101653.22;;;15.29;40.57
22241;BME280;11289;52.524;13.694;2023-04-19T11:12:19;101648.19;;;15.43;39.91
22241;BME280;11289;52.524;13.694;2023-04-19T11:14:57;101640.00;;;15.38;38.60
22241;BME280;11289;52.524;13.694;2023-04-19T11:17:29;101638.69;;;15.06;40.45
22241;BME280;11289;52.524;13.694;2023-04-19T11:22:30;101636.22;;;15.04;40.19
22241;BME280;11289;52.524;13.694;2023-04-19T11:25:17;101631.84;;;14.94;40.43
22241;BME280;11289;52.524;13.694;2023-04-19T11:27:46;101636.00;;;14.79;40.31
22241;BME280;11289;52.524;13.694;2023-04-19T11:30:14;101637.44;;;14.38;40.50
22241;BME280;11289;52.524;13.694;2023-04-19T11:35:18;101629.47;;;13.84;41.19
22241;BME280;11289;52.524;13.694;2023-04-19T11:37:44;101633.25;;;13.80;41.99
22241;BME280;11289;52.524;13.694;2023-04-19T11:40:14;101626.00;;;13.79;42.00
22241;BME280;11289;52.524;13.694;2023-04-19T11:42:41;101630.59;;;13.74;42.71
22241;BME280;11289;52.524;13.694;2023-04-19T11:45:08;101624.34;;;13.51;43.08
22241;BME280;11289;52.524;13.694;2023-04-19T11:47:46;101627.31;;;13.55;43.45
22241;BME280;11289;52.524;13.694;2023-04-19T11:52:57;101615.00;;;13.82;42.58
22241;BME280;11289;52.524;13.694;2023-04-19T11:55:23;101621.09;;;13.67;41.25
22241;BME280;11289;52.524;13.694;2023-04-19T11:57:49;101614.97;;;13.56;41.68
22241;BME280;11289;52.524;13.694;2023-04-19T12:00:16;101625.00;;;13.57;40.14
22241;BME280;11289;52.524;13.694;2023-04-19T12:02:52;101622.69;;;13.59;41.53
22241;BME280;11289;52.524;13.694;2023-04-19T12:05:18;101621.22;;;13.53;41.67
22241;BME280;11289;52.524;13.694;2023-04-19T12:08:01;101617.28;;;13.54;41.98
22241;BME280;11289;52.524;13.694;2023-04-19T12:10:29;101629.19;;;13.28;42.41
22241;BME280;11289;52.524;13.694;2023-04-19T12:12:56;101610.72;;;12.92;40.95
22241;BME280;11289;52.524;13.694;2023-04-19T12:15:22;101588.56;;;12.78;42.17
22241;BME280;11289;52.524;13.694;2023-04-19T12:17:59;101623.50;;;12.84;41.73
22241;BME280;11289;52.524;13.694;2023-04-19T12:20:34;101614.72;;;12.68;42.29
22241;BME280;11289;52.524;13.694;2023-04-19T12:23:01;101612.59;;;12.65;42.65
22241;BME280;11289;52.524;13.694;2023-04-19T12:25:33;101603.16;;;12.84;43.01
22241;BME280;11289;52.524;13.694;2023-04-19T12:28:01;101600.94;;;13.12;43.66
22241;BME280;11289;52.524;13.694;2023-04-19T12:30:27;101595.91;;;13.32;44.00
22241;BME280;11289;52.524;13.694;2023-04-19T12:32:53;101596.13;;;13.70;43.08
22241;BME280;11289;52.524;13.694;2023-04-19T12:35:24;101593.28;;;14.05;42.62
22241;BME280;11289;52.524;13.694;2023-04-19T12:37:54;101578.69;;;14.00;40.83
22241;BME280;11289;52.524;13.694;2023-04-19T12:40:21;101580.66;;;13.99;41.64
22241;BME280;11289;52.524;13.694;2023-04-19T12:42:47;101568.34;;;14.09;40.79
22241;BME280;11289;52.524;13.694;2023-04-19T12:45:14;101561.47;;;13.98;39.99
22241;BME280;11289;52.524;13.694;2023-04-19T12:47:40;101568.19;;;13.97;39.60
22241;BME280;11289;52.524;13.694;2023-04-19T12:50:07;101553.59;;;13.82;38.79
22241;BME280;11289;52.524;13.694;2023-04-19T12:52:34;101557.69;;;13.93;39.55
22241;BME280;11289;52.524;13.694;2023-04-19T12:55:00;101538.13;;;14.02;38.61
22241;BME280;11289;52.524;13.694;2023-04-19T12:57:26;101549.16;;;13.90;38.79
22241;BME280;11289;52.524;13.694;2023-04-19T12:59:52;101546.19;;;13.95;38.83
22241;BME280;11289;52.524;13.694;2023-04-19T13:02:18;101531.44;;;13.86;39.08
22241;BME280;11289;52.524;13.694;2023-04-19T13:04:44;101539.63;;;13.91;37.16
22241;BME280;11289;52.524;13.694;2023-04-19T13:07:10;101531.13;;;13.61;38.48
22241;BME280;11289;52.524;13.694;2023-04-19T13:09:36;101520.28;;;13.77;39.35
22241;BME280;11289;52.524;13.694;2023-04-19T13:12:04;101503.38;;;13.65;38.40
22241;BME280;11289;52.524;13.694;2023-04-19T13:14:30;101516.34;;;13.52;38.63